createdAt,value
2023-01-18T00:04:41.588Z,73.81
2023-01-18T00:09:43.077Z,73.50
2023-01-18T00:14:44.529Z,74.88
2023-01-18T00:19:45.949Z,75.08
2023-01-18T00:24:47.417Z,74.88
2023-01-18T00:29:48.880Z,74.82
2023-01-18T00:34:50.665Z,75.12
2023-01-18T00:39:52.102Z,75.12
2023-01-18T00:44:53.606Z,75.34
2023-01-18T00:49:55.082Z,75.33
2023-01-18T00:54:56.569Z,75.16
2023-01-18T00:59:57.973Z,74.91
2023-01-18T01:05:18.441Z,74.89
2023-01-18T01:10:19.931Z,75.14
2023-01-18T01:15:39.578Z,75.17
2023-01-18T01:20:59.567Z,75.36
2023-01-18T01:26:13.736Z,75.67
2023-01-18T01:31:16.205Z,75.49
2023-01-18T01:36:20.575Z,75.76
2023-01-18T01:41:26.708Z,75.76
2023-01-18T01:46:48.090Z,76.24
2023-01-18T01:51:58.596Z,75.63
2023-01-18T01:57:06.109Z,76.21
2023-01-18T02:02:07.944Z,76.08
2023-01-18T02:07:10.795Z,75.96
2023-01-18T02:12:12.904Z,75.75
2023-01-18T02:17:40.511Z,76.57
2023-01-18T02:22:47.774Z,76.45
2023-01-18T02:28:03.924Z,75.89
2023-01-18T02:33:10.828Z,76.27
2023-01-18T02:38:28.021Z,76.74
2023-01-18T02:43:48.399Z,76.45
2023-01-18T02:48:50.717Z,76.74
2023-01-18T02:53:52.616Z,76.28
2023-01-18T02:59:14.099Z,76.36
2023-01-18T03:04:26.701Z,77.05
2023-01-18T03:09:28.576Z,76.48
2023-01-18T03:14:47.956Z,76.85
2023-01-18T03:20:09.207Z,76.80
2023-01-18T03:25:15.090Z,76.53
2023-01-18T03:30:35.187Z,76.36
2023-01-18T03:35:38.243Z,76.32
2023-01-18T03:40:39.770Z,76.81
2023-01-18T03:45:46.539Z,76.20
2023-01-18T03:51:00.844Z,77.01
2023-01-18T03:56:09.004Z,77.42
2023-01-18T04:01:10.730Z,77.30
2023-01-18T04:06:12.252Z,77.71
2023-01-18T04:11:13.697Z,77.96
2023-01-18T04:16:15.290Z,80.51
2023-01-18T04:21:16.761Z,80.09
2023-01-18T04:26:19.277Z,80.27
2023-01-18T04:31:20.889Z,80.44
2023-01-18T04:36:22.432Z,81.09
2023-01-18T04:41:24.131Z,80.69
2023-01-18T04:46:25.617Z,81.11
2023-01-18T04:51:27.385Z,81.10
2023-01-18T04:56:28.836Z,80.81
2023-01-18T05:01:32.531Z,81.37
2023-01-18T05:06:33.967Z,81.24
2023-01-18T05:11:35.391Z,81.15
2023-01-18T05:16:36.879Z,81.87
2023-01-18T05:21:38.335Z,81.84
2023-01-18T05:26:39.765Z,81.56
2023-01-18T05:31:41.703Z,81.68
2023-01-18T05:36:43.151Z,80.95
2023-01-18T05:41:44.643Z,81.32
2023-01-18T05:46:46.103Z,81.47
2023-01-18T05:51:47.629Z,82.35
2023-01-18T05:56:49.068Z,82.35
2023-01-18T06:01:50.535Z,83.46
2023-01-18T06:06:51.980Z,83.23
2023-01-18T06:11:53.996Z,83.44
2023-01-18T06:16:55.665Z,83.71
2023-01-18T06:21:57.088Z,83.98
2023-01-18T06:26:59.227Z,84.55
2023-01-18T06:32:00.738Z,84.84
2023-01-18T06:37:03.381Z,86.10
2023-01-18T06:42:05.313Z,85.62
2023-01-18T06:47:06.735Z,85.48
2023-01-18T06:52:08.162Z,86.22
2023-01-18T06:57:09.569Z,86.41
2023-01-18T07:02:14.168Z,87.29
2023-01-18T07:07:15.724Z,87.55
2023-01-18T07:12:17.153Z,87.23
2023-01-18T07:17:18.650Z,87.36
2023-01-18T07:22:20.152Z,87.39
2023-01-18T07:27:21.569Z,87.36
2023-01-18T07:32:23.039Z,86.87
2023-01-18T07:37:24.449Z,87.03
2023-01-18T07:42:25.859Z,86.99
2023-01-18T07:47:27.292Z,87.33
2023-01-18T07:52:28.857Z,86.91
2023-01-18T07:57:30.275Z,87.02
2023-01-18T08:02:31.709Z,86.86
2023-01-18T08:07:33.441Z,86.85
2023-01-18T08:12:34.933Z,87.30
2023-01-18T08:17:36.362Z,87.07
2023-01-18T08:22:37.868Z,88.03
2023-01-18T08:27:39.273Z,87.50
2023-01-18T08:32:43.749Z,87.37
2023-01-18T08:37:45.199Z,87.62
2023-01-18T08:42:46.848Z,87.85
2023-01-18T08:47:48.255Z,87.15
2023-01-18T08:52:52.467Z,87.00
2023-01-18T08:57:54.802Z,87.27
2023-01-18T09:02:57.590Z,87.71
2023-01-18T09:07:59.363Z,87.20
2023-01-18T09:13:01.273Z,87.49
2023-01-18T09:18:06.194Z,87.59
2023-01-18T09:23:09.349Z,87.83
2023-01-18T09:28:12.362Z,87.34
2023-01-18T09:33:13.840Z,87.20
2023-01-18T09:38:16.044Z,87.46
2023-01-18T09:43:25.838Z,87.25
2023-01-18T09:48:35.762Z,86.70
2023-01-18T09:53:49.061Z,86.89
2023-01-18T09:59:05.637Z,86.98
2023-01-18T10:04:20.619Z,87.09
2023-01-18T10:09:28.955Z,88.06
2023-01-18T10:14:47.930Z,87.41
2023-01-18T10:19:50.245Z,87.29
2023-01-18T10:25:05.138Z,86.76
2023-01-18T10:30:12.637Z,86.85
2023-01-18T10:35:24.676Z,86.72
2023-01-18T10:40:26.600Z,86.59
2023-01-18T10:45:30.462Z,86.18
2023-01-18T10:50:39.826Z,86.34
2023-01-18T10:55:44.735Z,85.76
2023-01-18T11:00:53.560Z,85.46
2023-01-18T11:06:04.812Z,85.67
2023-01-18T11:11:12.199Z,85.76
2023-01-18T11:16:17.629Z,86.20
2023-01-18T11:21:19.279Z,86.19
2023-01-18T11:26:23.381Z,85.84
2023-01-18T11:31:46.253Z,85.70
2023-01-18T11:36:47.874Z,85.55
2023-01-18T11:41:49.824Z,85.94
2023-01-18T11:46:55.676Z,85.08
2023-01-18T11:52:05.194Z,85.16
2023-01-18T11:57:10.247Z,84.90
2023-01-18T12:02:56.517Z,84.73
2023-01-18T12:08:31.840Z,85.15
2023-01-18T12:13:42.267Z,85.57
2023-01-18T12:19:08.607Z,85.60
2023-01-18T12:24:23.767Z,85.99
2023-01-18T12:30:03.660Z,85.92
2023-01-18T12:35:35.629Z,86.78
2023-01-18T12:40:42.967Z,86.05
2023-01-18T12:46:09.077Z,85.57
2023-01-18T12:51:17.330Z,85.97
2023-01-18T12:56:31.378Z,86.30
2023-01-18T13:01:42.732Z,85.86
2023-01-18T13:06:45.610Z,85.84
2023-01-18T13:11:48.698Z,85.91
2023-01-18T13:17:08.897Z,85.27
2023-01-18T13:22:59.435Z,86.59
2023-01-18T13:28:02.747Z,85.95
2023-01-18T13:33:13.776Z,86.37
2023-01-18T13:38:21.139Z,85.65
2023-01-18T13:43:35.615Z,86.31
2023-01-18T13:48:55.213Z,86.41
2023-01-18T13:53:56.721Z,86.07
2023-01-18T13:59:23.286Z,85.91
2023-01-18T14:04:30.140Z,85.87
2023-01-18T14:09:36.410Z,86.09
2023-01-18T14:14:59.384Z,85.53
2023-01-18T14:20:25.505Z,85.44
2023-01-18T14:26:02.521Z,85.21
2023-01-18T14:31:07.098Z,85.51
2023-01-18T14:36:20.879Z,85.19
2023-01-18T14:41:23.206Z,84.79
2023-01-18T14:46:27.070Z,85.70
2023-01-18T14:51:29.976Z,85.77
2023-01-18T14:56:34.838Z,85.52
2023-01-18T15:01:40.093Z,85.79
2023-01-18T15:06:45.775Z,85.75
2023-01-18T15:11:49.266Z,86.10
2023-01-18T15:16:53.514Z,85.56
2023-01-18T15:21:55.070Z,86.07
2023-01-18T15:27:01.249Z,85.50
2023-01-18T15:32:16.508Z,85.97
2023-01-18T15:37:27.167Z,86.29
2023-01-18T15:42:36.912Z,86.33
2023-01-18T15:47:38.525Z,86.34
2023-01-18T15:52:46.500Z,86.91
2023-01-18T15:58:01.310Z,86.40
2023-01-18T16:03:04.539Z,86.88
2023-01-18T16:08:16.918Z,87.03
2023-01-18T16:13:31.000Z,86.86
2023-01-18T16:18:32.599Z,86.39
2023-01-18T16:23:34.276Z,86.48
2023-01-18T16:28:35.732Z,86.69
2023-01-18T16:33:37.164Z,86.99
2023-01-18T16:38:38.604Z,87.46
2023-01-18T16:43:40.630Z,88.12
2023-01-18T16:48:42.118Z,88.76
2023-01-18T16:53:43.565Z,88.83
2023-01-18T16:58:45.040Z,89.19
2023-01-18T17:03:46.456Z,89.64
2023-01-18T17:08:49.323Z,89.84
2023-01-18T17:13:50.941Z,90.10
2023-01-18T17:18:52.533Z,89.85
2023-01-18T17:23:54.024Z,89.96
2023-01-18T17:28:55.455Z,89.83
2023-01-18T17:33:56.912Z,89.86
2023-01-18T17:38:58.435Z,89.80
2023-01-18T17:43:59.880Z,89.34
2023-01-18T17:49:02.701Z,89.26
2023-01-18T17:54:10.247Z,89.02
2023-01-18T17:59:15.444Z,89.05
2023-01-18T18:04:16.910Z,88.77
2023-01-18T18:09:18.380Z,88.64
2023-01-18T18:14:19.893Z,88.01
2023-01-18T18:19:21.354Z,87.78
2023-01-18T18:24:22.889Z,87.57
2023-01-18T18:29:24.323Z,88.17
2023-01-18T18:34:25.928Z,87.79
2023-01-18T18:39:27.345Z,87.71
2023-01-18T18:44:28.984Z,87.34
2023-01-18T18:49:30.415Z,87.92
2023-01-18T18:54:31.911Z,87.99
2023-01-18T18:59:33.395Z,88.46
2023-01-18T19:04:34.878Z,88.92
2023-01-18T19:09:36.373Z,89.51
2023-01-18T19:14:37.801Z,88.96
2023-01-18T19:19:39.257Z,88.90
2023-01-18T19:24:40.801Z,89.19
2023-01-18T19:29:42.231Z,88.69
2023-01-18T19:34:43.783Z,88.72
2023-01-18T19:39:45.907Z,88.83
2023-01-18T19:44:47.303Z,89.51
2023-01-18T19:49:48.846Z,89.64
2023-01-18T19:54:50.249Z,89.18
2023-01-18T19:59:51.793Z,89.40
2023-01-18T20:04:53.334Z,89.21
2023-01-18T20:09:54.863Z,88.57
2023-01-18T20:14:56.280Z,88.74
2023-01-18T20:19:57.685Z,88.07
2023-01-18T20:24:59.140Z,87.92
2023-01-18T20:30:00.621Z,87.50
2023-01-18T20:35:02.062Z,87.71
2023-01-18T20:40:03.732Z,87.87
2023-01-18T20:45:05.800Z,87.69
2023-01-18T20:50:07.584Z,87.73
2023-01-18T20:55:12.784Z,87.22
2023-01-18T21:00:14.698Z,87.70
2023-01-18T21:05:16.207Z,87.73
2023-01-18T21:10:17.625Z,86.14
2023-01-18T21:15:19.041Z,86.48
2023-01-18T21:20:20.465Z,86.53
2023-01-18T21:25:22.124Z,86.49
2023-01-18T21:30:23.702Z,86.50
2023-01-18T21:35:25.219Z,85.16
2023-01-18T21:40:26.633Z,84.73
2023-01-18T21:45:46.840Z,85.04
2023-01-18T21:51:06.940Z,85.03
2023-01-18T21:56:08.928Z,85.28
2023-01-18T22:01:16.912Z,84.99
2023-01-18T22:06:18.417Z,85.90
2023-01-18T22:11:19.927Z,85.92
2023-01-18T22:16:21.389Z,85.77
2023-01-18T22:21:25.362Z,86.37
2023-01-18T22:26:29.248Z,85.98
2023-01-18T22:31:30.702Z,85.51
2023-01-18T22:36:32.880Z,85.81
2023-01-18T22:41:34.382Z,85.77
2023-01-18T22:46:35.851Z,86.58
2023-01-18T22:51:37.467Z,86.57
2023-01-18T22:56:38.904Z,86.44
2023-01-18T23:01:40.350Z,86.75
2023-01-18T23:06:47.880Z,86.42
2023-01-18T23:11:49.526Z,86.52
2023-01-18T23:17:09.800Z,86.04
2023-01-18T23:22:11.326Z,86.17
2023-01-18T23:27:12.797Z,85.83
2023-01-18T23:32:14.205Z,85.15
2023-01-18T23:37:15.605Z,85.63
2023-01-18T23:42:35.700Z,86.06
2023-01-18T23:47:55.776Z,85.92
2023-01-18T23:53:18.842Z,85.19
2023-01-18T23:58:20.675Z,85.59
